Terminal Aerodrome Forecast
Issued by NWS

Home | Current Version | Previous Version | Text Only | Print | Product List | Glossary On
Versions: 1 2 3 4 5 6 7 8 9 10 11 12 13 14 15 16 17
000
FTUS45 KREV 161129
TAFTVL
TAF
KTVL 161129Z 1612/1712 VRB03KT P6SM VCFG FEW008
      TEMPO 1613/1617 1SM BR BKN008
     FM161700 19006KT P6SM FEW010
     FM170300 VRB03KT P6SM FEW006
     FM171000 00000KT P6SM VCFG FEW005=

USA.gov is the U.S. government's official web portal to all federal, state and local government web resources and services.